Time;durP1;ratioP1;P1;durP2;ratioP2;P2;SDS_P1;SDS_P2;PMS_P1;PMS_P2;Temp;Humidity;BMP_temperature;BMP_pressure;BME280_temperature;BME280_humidity;BME280_pressure;Samples;Min_cycle;Max_cycle;Signal;HPM_P1;HPM_P2
2020/09/02 00:01:27;;;;;;;1.81;1.70;;;;;;;21.51;67.33;100459.91;;;;-51
2020/09/02 00:04:27;;;;;;;2.07;1.74;;;;;;;21.51;67.30;100464.47;;;;-51
2020/09/02 00:07:26;;;;;;;2.19;1.67;;;;;;;21.50;67.30;100464.15;;;;-52
2020/09/02 00:10:26;;;;;;;1.91;1.81;;;;;;;21.50;67.30;100465.53;;;;-52
2020/09/02 00:13:26;;;;;;;1.82;1.67;;;;;;;21.48;67.30;100465.28;;;;-48
2020/09/02 00:16:26;;;;;;;1.86;1.76;;;;;;;21.49;67.27;100469.61;;;;-47
2020/09/02 00:19:27;;;;;;;1.91;1.70;;;;;;;21.49;67.26;100468.95;;;;-47
2020/09/02 00:22:26;;;;;;;2.09;1.74;;;;;;;21.48;67.33;100466.49;;;;-47
2020/09/02 00:25:27;;;;;;;1.75;1.65;;;;;;;21.47;67.33;100466.17;;;;-48
2020/09/02 00:28:26;;;;;;;1.79;1.69;;;;;;;21.46;67.26;100466.11;;;;-47
2020/09/02 00:31:26;;;;;;;1.69;1.59;;;;;;;21.47;67.27;100474.50;;;;-47
2020/09/02 00:34:27;;;;;;;1.72;1.62;;;;;;;21.47;67.24;100474.73;;;;-47
2020/09/02 00:37:26;;;;;;;2.02;1.79;;;;;;;21.46;67.22;100476.55;;;;-47
2020/09/02 00:40:26;;;;;;;1.71;1.61;;;;;;;21.46;67.24;100480.38;;;;-47
2020/09/02 00:43:27;;;;;;;1.73;1.63;;;;;;;21.45;67.27;100477.83;;;;-47
2020/09/02 00:46:26;;;;;;;1.71;1.61;;;;;;;21.46;67.31;100480.36;;;;-47
2020/09/02 00:49:26;;;;;;;1.88;1.70;;;;;;;21.45;67.27;100477.75;;;;-47
2020/09/02 00:52:27;;;;;;;1.90;1.75;;;;;;;21.45;67.24;100478.16;;;;-47
2020/09/02 00:55:26;;;;;;;1.72;1.62;;;;;;;21.44;67.33;100479.16;;;;-47
2020/09/02 00:58:39;;;;;;;1.59;1.49;;;;;;;21.43;67.36;100483.87;;;;-47
2020/09/02 01:04:26;;;;;;;1.85;1.70;;;;;;;21.43;67.33;100482.73;;;;-47
2020/09/02 01:07:26;;;;;;;1.75;1.65;;;;;;;21.43;67.32;100482.08;;;;-47
2020/09/02 01:10:26;;;;;;;1.59;1.49;;;;;;;21.42;67.27;100479.88;;;;-47
2020/09/02 01:13:26;;;;;;;1.80;1.70;;;;;;;21.42;67.25;100479.57;;;;-48
2020/09/02 01:16:41;;;;;;;1.96;1.59;;;;;;;21.41;67.30;100480.42;;;;-47
2020/09/02 01:19:27;;;;;;;1.67;1.57;;;;;;;21.40;67.29;100482.23;;;;-47
2020/09/02 01:22:26;;;;;;;1.70;1.60;;;;;;;21.40;67.26;100479.86;;;;-47
2020/09/02 01:25:26;;;;;;;1.74;1.63;;;;;;;21.41;67.32;100480.75;;;;-47
2020/09/02 01:28:27;;;;;;;2.02;1.59;;;;;;;21.41;67.25;100479.61;;;;-51
2020/09/02 01:31:27;;;;;;;2.56;1.60;;;;;;;21.40;67.30;100482.15;;;;-51
2020/09/02 01:34:26;;;;;;;1.73;1.57;;;;;;;21.41;67.19;100486.94;;;;-51
2020/09/02 01:37:27;;;;;;;2.31;1.60;;;;;;;21.41;67.28;100487.67;;;;-52
2020/09/02 01:40:26;;;;;;;1.81;1.71;;;;;;;21.40;67.24;100482.56;;;;-51
2020/09/02 01:43:26;;;;;;;1.65;1.55;;;;;;;21.39;67.29;100478.13;;;;-52
2020/09/02 01:46:26;;;;;;;1.60;1.50;;;;;;;21.38;67.27;100478.39;;;;-50
2020/09/02 01:49:27;;;;;;;1.70;1.60;;;;;;;21.39;67.29;100479.61;;;;-50
2020/09/02 01:52:26;;;;;;;1.70;1.60;;;;;;;21.38;67.26;100481.25;;;;-50
2020/09/02 01:55:26;;;;;;;1.61;1.51;;;;;;;21.38;67.23;100481.91;;;;-50
2020/09/02 01:58:26;;;;;;;1.71;1.60;;;;;;;21.37;67.25;100480.20;;;;-50
2020/09/02 02:01:27;;;;;;;1.61;1.51;;;;;;;21.38;67.26;100481.75;;;;-50
2020/09/02 02:04:26;;;;;;;1.51;1.41;;;;;;;21.37;67.31;100480.26;;;;-50
2020/09/02 02:07:26;;;;;;;1.70;1.60;;;;;;;21.37;67.31;100477.98;;;;-50
2020/09/02 02:10:27;;;;;;;1.69;1.58;;;;;;;21.37;67.33;100477.49;;;;-50
2020/09/02 02:13:27;;;;;;;1.73;1.63;;;;;;;21.36;67.27;100480.60;;;;-54
2020/09/02 02:16:26;;;;;;;1.55;1.44;;;;;;;21.36;67.29;100477.02;;;;-54
2020/09/02 02:19:26;;;;;;;1.60;1.50;;;;;;;21.36;67.24;100480.84;;;;-54
2020/09/02 02:22:26;;;;;;;1.82;1.70;;;;;;;21.35;67.24;100480.09;;;;-55
2020/09/02 02:25:27;;;;;;;1.79;1.69;;;;;;;21.34;67.31;100470.08;;;;-54
2020/09/02 02:28:26;;;;;;;1.87;1.51;;;;;;;21.35;67.27;100473.26;;;;-54
2020/09/02 02:31:26;;;;;;;1.99;1.58;;;;;;;21.34;67.28;100471.31;;;;-54
2020/09/02 02:34:26;;;;;;;1.55;1.45;;;;;;;21.34;67.23;100466.17;;;;-55
2020/09/02 02:37:26;;;;;;;1.81;1.50;;;;;;;21.34;67.21;100463.48;;;;-54
2020/09/02 02:40:26;;;;;;;1.72;1.62;;;;;;;21.33;67.27;100464.39;;;;-55
2020/09/02 02:43:26;;;;;;;1.62;1.50;;;;;;;21.33;67.24;100465.53;;;;-54
2020/09/02 02:46:26;;;;;;;1.60;1.50;;;;;;;21.33;67.27;100468.69;;;;-55
2020/09/02 02:49:26;;;;;;;1.60;1.50;;;;;;;21.33;67.27;100465.11;;;;-55
2020/09/02 02:52:26;;;;;;;1.50;1.40;;;;;;;21.32;67.28;100465.36;;;;-55
2020/09/02 02:55:26;;;;;;;1.77;1.67;;;;;;;21.33;67.29;100459.89;;;;-54
2020/09/02 02:58:26;;;;;;;1.60;1.50;;;;;;;21.32;67.21;100458.02;;;;-54
2020/09/02 03:01:26;;;;;;;1.62;1.52;;;;;;;21.32;67.23;100466.66;;;;-54
2020/09/02 03:04:26;;;;;;;1.55;1.45;;;;;;;21.32;67.25;100461.53;;;;-55
2020/09/02 03:07:27;;;;;;;1.59;1.49;;;;;;;21.31;67.25;100462.77;;;;-55
2020/09/02 03:10:26;;;;;;;1.53;1.43;;;;;;;21.31;67.27;100463.91;;;;-55
2020/09/02 03:13:26;;;;;;;1.73;1.63;;;;;;;21.31;67.23;100464.37;;;;-55
2020/09/02 03:16:26;;;;;;;1.69;1.44;;;;;;;21.30;67.19;100461.20;;;;-54
2020/09/02 03:19:26;;;;;;;2.63;1.50;;;;;;;21.31;67.24;100460.97;;;;-54
2020/09/02 03:22:26;;;;;;;1.59;1.49;;;;;;;21.30;67.25;100461.53;;;;-55
2020/09/02 03:25:26;;;;;;;1.60;1.50;;;;;;;21.30;67.28;100464.72;;;;-54
2020/09/02 03:28:26;;;;;;;1.69;1.59;;;;;;;21.30;67.25;100470.26;;;;-55
2020/09/02 03:31:26;;;;;;;1.56;1.46;;;;;;;21.29;67.21;100478.25;;;;-54
2020/09/02 03:34:26;;;;;;;1.60;1.50;;;;;;;21.28;67.20;100473.75;;;;-54
2020/09/02 03:37:26;;;;;;;1.63;1.53;;;;;;;21.29;67.26;100474.83;;;;-54
2020/09/02 03:40:26;;;;;;;1.50;1.40;;;;;;;21.28;67.26;100469.44;;;;-55
2020/09/02 03:43:26;;;;;;;1.56;1.46;;;;;;;21.28;67.28;100470.81;;;;-54
2020/09/02 03:46:26;;;;;;;1.60;1.50;;;;;;;21.28;67.24;100469.12;;;;-54
2020/09/02 03:49:26;;;;;;;1.60;1.50;;;;;;;21.28;67.24;100474.25;;;;-54
2020/09/02 03:52:26;;;;;;;1.41;1.31;;;;;;;21.27;67.33;100473.37;;;;-54
2020/09/02 03:55:26;;;;;;;1.56;1.46;;;;;;;21.27;67.26;100470.92;;;;-51
2020/09/02 03:58:26;;;;;;;1.60;1.50;;;;;;;21.27;67.31;100466.98;;;;-51
2020/09/02 04:01:26;;;;;;;1.67;1.57;;;;;;;21.27;67.33;100468.94;;;;-51
2020/09/02 04:04:26;;;;;;;1.61;1.51;;;;;;;21.26;67.24;100469.52;;;;-50
2020/09/02 04:07:26;;;;;;;1.51;1.41;;;;;;;21.26;67.31;100475.30;;;;-51
2020/09/02 04:10:26;;;;;;;1.59;1.49;;;;;;;21.26;67.31;100479.88;;;;-51
2020/09/02 04:13:26;;;;;;;4.15;2.33;;;;;;;21.06;62.23;100481.45;;;;-51
2020/09/02 04:16:26;;;;;;;2.57;2.28;;;;;;;20.79;61.23;100486.38;;;;-51
2020/09/02 04:19:26;;;;;;;2.91;2.29;;;;;;;20.61;60.94;100497.67;;;;-50
2020/09/02 04:22:26;;;;;;;2.89;2.40;;;;;;;20.46;61.17;100496.61;;;;-51
2020/09/02 04:25:26;;;;;;;3.07;2.38;;;;;;;20.28;61.15;100499.91;;;;-50
2020/09/02 04:28:26;;;;;;;2.67;2.47;;;;;;;20.17;61.38;100504.65;;;;-50
2020/09/02 04:31:26;;;;;;;4.55;2.58;;;;;;;20.06;61.62;100508.19;;;;-51
2020/09/02 04:34:26;;;;;;;3.15;2.54;;;;;;;19.97;61.65;100512.14;;;;-50
2020/09/02 04:37:26;;;;;;;4.45;2.69;;;;;;;19.86;62.00;100512.83;;;;-51
2020/09/02 04:40:26;;;;;;;2.89;2.61;;;;;;;19.78;62.05;100512.62;;;;-50
2020/09/02 04:43:26;;;;;;;3.39;2.60;;;;;;;19.68;62.41;100510.40;;;;-50
2020/09/02 04:46:27;;;;;;;4.01;2.78;;;;;;;19.64;62.59;100512.97;;;;-51
2020/09/02 04:49:26;;;;;;;2.91;2.59;;;;;;;19.60;62.68;100512.22;;;;-50
2020/09/02 04:52:26;;;;;;;3.88;2.59;;;;;;;19.51;63.07;100521.34;;;;-50
2020/09/02 04:55:26;;;;;;;3.01;2.63;;;;;;;19.42;63.10;100520.70;;;;-50
2020/09/02 04:58:26;;;;;;;2.98;2.59;;;;;;;19.41;62.97;100517.37;;;;-50
2020/09/02 05:01:26;;;;;;;2.98;2.55;;;;;;;19.36;63.24;100519.27;;;;-54
2020/09/02 05:04:26;;;;;;;3.49;3.19;;;;;;;19.30;63.37;100520.59;;;;-54
2020/09/02 05:07:26;;;;;;;3.21;2.77;;;;;;;19.25;63.34;100528.53;;;;-54
2020/09/02 05:10:26;;;;;;;3.82;2.89;;;;;;;19.24;63.27;100533.58;;;;-55
2020/09/02 05:13:26;;;;;;;3.53;3.03;;;;;;;19.22;63.44;100541.27;;;;-48
2020/09/02 05:16:26;;;;;;;4.51;3.09;;;;;;;19.13;63.85;100543.13;;;;-48
2020/09/02 05:19:26;;;;;;;4.03;3.11;;;;;;;19.14;63.52;100544.20;;;;-47
2020/09/02 05:22:26;;;;;;;3.59;2.80;;;;;;;19.10;63.94;100546.69;;;;-47
2020/09/02 05:25:26;;;;;;;3.43;2.99;;;;;;;19.05;64.00;100548.68;;;;-47
2020/09/02 05:28:26;;;;;;;5.26;3.33;;;;;;;19.01;64.11;100553.03;;;;-48
2020/09/02 05:31:26;;;;;;;3.40;3.10;;;;;;;18.97;64.31;100553.06;;;;-47
2020/09/02 05:34:26;;;;;;;3.78;3.13;;;;;;;18.91;64.56;100555.44;;;;-54
2020/09/02 05:37:26;;;;;;;4.05;3.05;;;;;;;18.95;64.77;100555.97;;;;-54
2020/09/02 05:40:26;;;;;;;4.35;3.15;;;;;;;18.91;64.89;100556.09;;;;-48
2020/09/02 05:43:26;;;;;;;4.00;2.95;;;;;;;18.87;65.16;100556.94;;;;-48
2020/09/02 05:46:26;;;;;;;3.57;2.88;;;;;;;18.85;64.86;100560.48;;;;-47
2020/09/02 05:49:26;;;;;;;3.10;2.79;;;;;;;18.81;65.38;100556.55;;;;-48
2020/09/02 05:52:27;;;;;;;5.02;3.19;;;;;;;18.76;65.62;100550.80;;;;-55
2020/09/02 05:55:26;;;;;;;3.63;2.99;;;;;;;18.75;65.43;100548.41;;;;-50
2020/09/02 05:58:26;;;;;;;3.99;3.17;;;;;;;18.70;65.76;100541.47;;;;-50
2020/09/02 06:01:26;;;;;;;3.23;2.88;;;;;;;18.73;65.47;100541.58;;;;-50
2020/09/02 06:04:26;;;;;;;3.21;2.91;;;;;;;18.65;65.73;100545.78;;;;-51
2020/09/02 06:07:26;;;;;;;3.32;3.02;;;;;;;18.64;66.00;100541.24;;;;-51
2020/09/02 06:10:26;;;;;;;3.52;3.22;;;;;;;18.66;65.96;100542.08;;;;-54
2020/09/02 06:13:26;;;;;;;3.54;3.07;;;;;;;18.58;66.18;100538.57;;;;-54
2020/09/02 06:16:26;;;;;;;3.97;3.38;;;;;;;18.61;66.03;100532.27;;;;-54
2020/09/02 06:19:26;;;;;;;6.41;3.11;;;;;;;18.62;66.04;100537.65;;;;-54
2020/09/02 06:22:26;;;;;;;3.37;3.07;;;;;;;18.61;66.30;100542.98;;;;-55
2020/09/02 06:25:26;;;;;;;3.80;3.21;;;;;;;18.55;66.66;100547.89;;;;-54
2020/09/02 06:28:26;;;;;;;3.82;3.05;;;;;;;18.53;66.96;100546.41;;;;-55
2020/09/02 06:31:26;;;;;;;3.54;2.98;;;;;;;18.56;66.92;100554.38;;;;-54
2020/09/02 06:34:26;;;;;;;3.55;3.02;;;;;;;18.55;67.17;100549.80;;;;-54
2020/09/02 06:37:26;;;;;;;3.32;2.94;;;;;;;18.55;67.33;100553.08;;;;-55
2020/09/02 06:40:26;;;;;;;3.35;3.03;;;;;;;18.52;67.59;100554.66;;;;-50
2020/09/02 06:43:26;;;;;;;9.01;3.11;;;;;;;18.55;67.54;100555.48;;;;-51
2020/09/02 06:46:27;;;;;;;3.65;2.66;;;;;;;18.68;67.39;100552.00;;;;-52
2020/09/02 06:49:26;;;;;;;2.77;2.50;;;;;;;18.79;67.32;100553.84;;;;-51
2020/09/02 06:52:26;;;;;;;4.91;2.59;;;;;;;18.89;67.08;100554.52;;;;-49
2020/09/02 06:55:26;;;;;;;4.61;2.41;;;;;;;18.97;66.97;100557.86;;;;-49
2020/09/02 06:58:26;;;;;;;2.89;2.47;;;;;;;19.05;66.92;100563.95;;;;-48
2020/09/02 07:01:26;;;;;;;3.91;2.51;;;;;;;19.10;66.82;100562.85;;;;-48
2020/09/02 07:04:26;;;;;;;2.66;2.39;;;;;;;19.15;66.67;100570.77;;;;-49
2020/09/02 07:07:26;;;;;;;2.61;2.41;;;;;;;19.20;66.70;100572.78;;;;-49
2020/09/02 07:10:26;;;;;;;2.63;2.29;;;;;;;19.24;66.64;100574.36;;;;-49
2020/09/02 07:13:26;;;;;;;3.39;2.40;;;;;;;19.28;66.55;100578.05;;;;-49
2020/09/02 07:16:26;;;;;;;3.46;2.50;;;;;;;19.32;66.56;100579.52;;;;-49
2020/09/02 07:19:26;;;;;;;2.90;2.37;;;;;;;19.36;66.52;100587.69;;;;-49
2020/09/02 07:22:26;;;;;;;3.13;2.39;;;;;;;19.38;66.51;100589.69;;;;-49
2020/09/02 07:25:26;;;;;;;2.46;2.26;;;;;;;19.42;66.43;100587.66;;;;-49
2020/09/02 07:28:26;;;;;;;3.51;2.11;;;;;;;19.44;66.45;100587.60;;;;-49
2020/09/02 07:31:26;;;;;;;2.40;2.20;;;;;;;19.47;66.41;100590.97;;;;-49
2020/09/02 07:34:26;;;;;;;2.28;2.08;;;;;;;19.49;66.41;100589.86;;;;-49
2020/09/02 07:37:26;;;;;;;3.14;2.19;;;;;;;19.52;66.38;100591.58;;;;-49
2020/09/02 07:40:26;;;;;;;2.53;2.23;;;;;;;19.53;66.40;100589.41;;;;-56
2020/09/02 07:43:26;;;;;;;4.21;2.50;;;;;;;19.58;66.44;100592.03;;;;-47
2020/09/02 07:46:26;;;;;;;3.06;2.19;;;;;;;19.61;66.48;100594.42;;;;-49
2020/09/02 07:49:26;;;;;;;2.53;2.33;;;;;;;19.65;66.65;100599.39;;;;-58
2020/09/02 07:52:26;;;;;;;3.11;2.19;;;;;;;19.68;66.68;100600.32;;;;-49
2020/09/02 07:55:26;;;;;;;4.99;2.38;;;;;;;19.72;66.76;100600.23;;;;-55
2020/09/02 07:58:26;;;;;;;4.04;2.22;;;;;;;19.76;66.69;100598.31;;;;-48
2020/09/02 08:01:26;;;;;;;3.53;2.21;;;;;;;19.79;66.93;100592.63;;;;-58
2020/09/02 08:04:26;;;;;;;4.61;2.15;;;;;;;19.82;66.80;100598.19;;;;-49
2020/09/02 08:07:26;;;;;;;4.02;2.19;;;;;;;19.84;66.85;100605.20;;;;-53
2020/09/02 08:10:26;;;;;;;3.02;2.25;;;;;;;19.87;66.80;100607.16;;;;-51
2020/09/02 08:13:26;;;;;;;2.73;2.28;;;;;;;19.89;66.86;100610.34;;;;-49
2020/09/02 08:16:26;;;;;;;4.81;2.05;;;;;;;19.92;66.86;100613.28;;;;-49
2020/09/02 08:19:26;;;;;;;3.29;2.18;;;;;;;19.95;66.86;100613.72;;;;-53
2020/09/02 08:22:26;;;;;;;2.77;2.30;;;;;;;19.99;66.77;100611.97;;;;-49
2020/09/02 08:25:26;;;;;;;3.54;2.30;;;;;;;20.02;66.78;100609.94;;;;-49
2020/09/02 08:28:26;;;;;;;3.05;2.03;;;;;;;20.04;66.79;100614.67;;;;-51
2020/09/02 08:31:26;;;;;;;4.56;2.25;;;;;;;20.07;66.80;100617.88;;;;-56
2020/09/02 08:34:26;;;;;;;2.08;1.95;;;;;;;20.10;66.76;100623.00;;;;-49
2020/09/02 08:37:26;;;;;;;4.19;2.02;;;;;;;20.13;66.74;100622.06;;;;-50
2020/09/02 08:40:26;;;;;;;3.41;2.26;;;;;;;20.14;66.57;100619.70;;;;-52
2020/09/02 08:43:26;;;;;;;7.63;2.21;;;;;;;20.16;66.70;100624.11;;;;-51
2020/09/02 08:46:26;;;;;;;2.99;2.00;;;;;;;20.18;66.71;100629.00;;;;-52
2020/09/02 08:49:26;;;;;;;2.27;1.99;;;;;;;20.20;66.65;100628.52;;;;-52
2020/09/02 08:52:26;;;;;;;5.21;2.10;;;;;;;20.23;66.65;100629.67;;;;-47
2020/09/02 08:55:26;;;;;;;3.08;2.16;;;;;;;20.25;66.63;100633.78;;;;-56
2020/09/02 08:58:26;;;;;;;2.87;2.22;;;;;;;20.27;66.58;100631.33;;;;-51
2020/09/02 09:01:26;;;;;;;4.29;2.10;;;;;;;20.29;66.52;100630.36;;;;-51
2020/09/02 09:04:26;;;;;;;3.77;2.20;;;;;;;20.32;66.51;100628.60;;;;-56
2020/09/02 09:07:26;;;;;;;3.30;2.16;;;;;;;20.34;66.46;100628.13;;;;-57
2020/09/02 09:10:26;;;;;;;5.90;2.05;;;;;;;20.36;66.45;100631.80;;;;-57
2020/09/02 09:13:26;;;;;;;4.04;2.13;;;;;;;20.38;66.40;100635.15;;;;-58
2020/09/02 09:16:26;;;;;;;2.33;2.07;;;;;;;20.40;66.36;100635.32;;;;-58
2020/09/02 09:19:26;;;;;;;3.93;2.05;;;;;;;20.41;66.37;100634.17;;;;-52
2020/09/02 09:22:26;;;;;;;3.47;2.21;;;;;;;20.43;66.33;100635.98;;;;-52
2020/09/02 09:25:26;;;;;;;2.75;2.16;;;;;;;20.45;66.37;100635.17;;;;-52
2020/09/02 09:28:26;;;;;;;4.07;2.18;;;;;;;20.47;66.26;100632.91;;;;-53
2020/09/02 09:31:26;;;;;;;2.45;2.13;;;;;;;20.48;66.23;100632.19;;;;-56
2020/09/02 09:34:26;;;;;;;3.43;2.07;;;;;;;20.50;66.22;100631.69;;;;-58
2020/09/02 09:37:26;;;;;;;2.72;2.10;;;;;;;20.52;66.19;100627.79;;;;-56
2020/09/02 09:40:26;;;;;;;3.37;2.17;;;;;;;20.53;66.15;100632.45;;;;-50
2020/09/02 09:43:26;;;;;;;5.71;2.07;;;;;;;20.53;66.05;100636.84;;;;-58
2020/09/02 09:46:26;;;;;;;2.69;2.39;;;;;;;20.53;66.13;100641.89;;;;-59
2020/09/02 09:49:26;;;;;;;2.66;2.28;;;;;;;20.54;66.06;100642.38;;;;-58
2020/09/02 09:52:26;;;;;;;4.16;2.29;;;;;;;20.53;66.01;100643.28;;;;-59
2020/09/02 09:55:26;;;;;;;3.95;2.29;;;;;;;20.53;66.00;100645.64;;;;-59
2020/09/02 09:58:26;;;;;;;3.79;2.23;;;;;;;20.53;65.99;100645.23;;;;-58
2020/09/02 10:01:26;;;;;;;3.83;2.19;;;;;;;20.53;65.97;100647.34;;;;-58
2020/09/02 10:04:26;;;;;;;4.99;2.31;;;;;;;20.54;65.98;100646.36;;;;-58
2020/09/02 10:07:26;;;;;;;5.07;2.21;;;;;;;20.54;65.92;100642.86;;;;-57
2020/09/02 10:10:26;;;;;;;3.40;2.26;;;;;;;20.55;65.91;100644.35;;;;-58
2020/09/02 10:13:26;;;;;;;4.62;2.21;;;;;;;20.55;65.87;100640.11;;;;-57
2020/09/02 10:16:26;;;;;;;4.05;2.08;;;;;;;20.55;65.85;100640.68;;;;-58
2020/09/02 10:19:26;;;;;;;3.65;2.35;;;;;;;20.55;65.90;100638.48;;;;-58
2020/09/02 10:22:26;;;;;;;4.14;2.20;;;;;;;20.55;65.89;100636.61;;;;-58
2020/09/02 10:25:26;;;;;;;3.05;2.03;;;;;;;20.55;65.87;100641.66;;;;-57
2020/09/02 10:28:26;;;;;;;3.12;2.17;;;;;;;20.54;65.88;100640.20;;;;-58
2020/09/02 10:31:26;;;;;;;2.51;2.17;;;;;;;20.54;65.88;100637.92;;;;-57
2020/09/02 10:34:26;;;;;;;4.72;2.18;;;;;;;20.55;65.83;100634.73;;;;-58
2020/09/02 10:37:26;;;;;;;6.13;2.28;;;;;;;20.57;65.85;100634.09;;;;-51
2020/09/02 10:40:26;;;;;;;5.20;2.27;;;;;;;20.60;65.78;100625.83;;;;-51
2020/09/02 10:43:26;;;;;;;3.05;2.31;;;;;;;20.64;65.87;100623.56;;;;-56
2020/09/02 10:46:26;;;;;;;6.05;2.13;;;;;;;20.66;65.80;100621.13;;;;-56
2020/09/02 10:49:26;;;;;;;6.22;2.72;;;;;;;20.65;65.79;100620.32;;;;-61
2020/09/02 10:52:26;;;;;;;3.04;2.19;;;;;;;20.65;65.82;100615.82;;;;-59
2020/09/02 10:55:26;;;;;;;4.43;2.41;;;;;;;20.66;65.71;100613.31;;;;-60
2020/09/02 10:58:26;;;;;;;4.86;2.49;;;;;;;20.65;65.70;100618.69;;;;-51
2020/09/02 11:01:26;;;;;;;4.63;2.28;;;;;;;20.66;65.77;100616.41;;;;-52
2020/09/02 11:04:26;;;;;;;3.81;2.32;;;;;;;20.65;65.74;100609.00;;;;-52
2020/09/02 11:07:26;;;;;;;3.75;2.23;;;;;;;20.66;65.79;100610.47;;;;-52
2020/09/02 11:10:26;;;;;;;3.11;2.21;;;;;;;20.66;65.72;100609.73;;;;-51
2020/09/02 11:13:26;;;;;;;5.09;2.35;;;;;;;20.66;65.72;100610.63;;;;-52
2020/09/02 11:16:26;;;;;;;3.46;2.23;;;;;;;20.65;65.72;100610.55;;;;-51
2020/09/02 11:19:26;;;;;;;3.41;2.21;;;;;;;20.66;65.72;100605.41;;;;-52
2020/09/02 11:22:26;;;;;;;3.57;2.67;;;;;;;20.66;65.68;100604.11;;;;-52
2020/09/02 11:25:26;;;;;;;4.28;2.31;;;;;;;20.65;65.69;100601.19;;;;-51
2020/09/02 11:28:26;;;;;;;3.49;2.23;;;;;;;20.65;65.69;100602.47;;;;-51
2020/09/02 11:31:26;;;;;;;3.55;2.14;;;;;;;20.65;65.69;100595.97;;;;-51
2020/09/02 11:34:26;;;;;;;3.06;2.28;;;;;;;20.67;65.63;100595.73;;;;-51
2020/09/02 11:37:26;;;;;;;5.06;2.33;;;;;;;20.66;65.67;100594.91;;;;-52
2020/09/02 11:40:26;;;;;;;4.14;2.23;;;;;;;20.67;65.73;100597.20;;;;-52
2020/09/02 11:43:26;;;;;;;3.67;2.22;;;;;;;20.67;65.66;100593.62;;;;-51
2020/09/02 11:46:26;;;;;;;3.26;2.27;;;;;;;20.67;65.68;100593.19;;;;-52
2020/09/02 11:49:26;;;;;;;2.90;2.20;;;;;;;20.67;65.59;100593.84;;;;-52
2020/09/02 11:52:26;;;;;;;4.04;2.17;;;;;;;20.67;65.59;100596.63;;;;-52
2020/09/02 11:55:26;;;;;;;2.59;2.10;;;;;;;20.67;65.64;100597.37;;;;-51
2020/09/02 11:58:26;;;;;;;2.28;2.08;;;;;;;20.68;65.63;100597.36;;;;-51
2020/09/02 12:01:26;;;;;;;3.05;2.17;;;;;;;20.68;65.66;100599.63;;;;-53
2020/09/02 12:04:26;;;;;;;3.54;2.07;;;;;;;20.68;65.65;100603.47;;;;-52
2020/09/02 12:07:26;;;;;;;3.20;2.05;;;;;;;20.69;65.62;100604.59;;;;-51
2020/09/02 12:10:26;;;;;;;2.71;2.11;;;;;;;20.68;65.62;100600.28;;;;-51
2020/09/02 12:13:26;;;;;;;2.39;2.13;;;;;;;20.69;65.62;100600.80;;;;-51
2020/09/02 12:16:26;;;;;;;2.46;2.19;;;;;;;20.69;65.60;100595.25;;;;-51
2020/09/02 12:19:26;;;;;;;2.71;2.08;;;;;;;20.69;65.62;100600.14;;;;-51
2020/09/02 12:22:26;;;;;;;2.31;2.09;;;;;;;20.69;65.61;100594.61;;;;-51
2020/09/02 12:25:26;;;;;;;8.32;2.46;;;;;;;20.71;65.61;100585.47;;;;-51
2020/09/02 12:28:26;;;;;;;6.03;2.25;;;;;;;20.73;65.66;100587.19;;;;-52
2020/09/02 12:31:26;;;;;;;6.42;2.23;;;;;;;20.76;65.70;100584.69;;;;-51
2020/09/02 12:34:26;;;;;;;3.83;2.08;;;;;;;20.77;65.67;100584.21;;;;-51
2020/09/02 12:37:26;;;;;;;3.55;2.11;;;;;;;20.78;65.67;100582.89;;;;-51
2020/09/02 12:40:26;;;;;;;4.07;2.13;;;;;;;20.79;65.66;100579.73;;;;-52
2020/09/02 12:43:26;;;;;;;4.95;2.23;;;;;;;20.79;65.66;100572.45;;;;-52
2020/09/02 12:46:26;;;;;;;3.47;2.21;;;;;;;20.78;65.67;100573.85;;;;-52
2020/09/02 12:49:26;;;;;;;3.16;1.99;;;;;;;20.78;65.68;100575.97;;;;-52
2020/09/02 12:52:26;;;;;;;3.09;2.10;;;;;;;20.78;65.68;100570.36;;;;-52
2020/09/02 12:55:26;;;;;;;3.29;2.19;;;;;;;20.78;65.71;100568.64;;;;-52
2020/09/02 12:58:26;;;;;;;2.58;2.18;;;;;;;20.78;65.67;100569.62;;;;-52
2020/09/02 13:01:26;;;;;;;2.50;2.14;;;;;;;20.78;65.66;100561.89;;;;-52
2020/09/02 13:04:26;;;;;;;2.87;2.13;;;;;;;20.78;65.66;100561.63;;;;-52
2020/09/02 13:07:26;;;;;;;3.76;2.15;;;;;;;20.77;65.65;100554.95;;;;-52
2020/09/02 13:10:26;;;;;;;3.19;2.15;;;;;;;20.77;65.71;100555.62;;;;-52
2020/09/02 13:13:26;;;;;;;2.56;2.13;;;;;;;20.77;65.64;100556.52;;;;-52
2020/09/02 13:16:26;;;;;;;3.84;2.22;;;;;;;20.77;65.65;100559.20;;;;-52
2020/09/02 13:19:26;;;;;;;4.97;2.10;;;;;;;20.78;65.65;100556.19;;;;-52
2020/09/02 13:22:26;;;;;;;2.41;2.04;;;;;;;20.77;65.69;100554.97;;;;-52
2020/09/02 13:25:26;;;;;;;4.29;2.15;;;;;;;20.77;65.68;100555.70;;;;-52
2020/09/02 13:28:26;;;;;;;2.79;1.95;;;;;;;20.77;65.64;100558.72;;;;-52
2020/09/02 13:31:26;;;;;;;3.16;1.93;;;;;;;20.77;65.67;100556.52;;;;-52
2020/09/02 13:34:26;;;;;;;2.82;2.16;;;;;;;20.77;65.64;100559.45;;;;-52
2020/09/02 13:37:26;;;;;;;2.35;2.15;;;;;;;20.77;65.67;100559.29;;;;-52
2020/09/02 13:40:26;;;;;;;2.95;2.05;;;;;;;20.78;65.71;100557.57;;;;-52
2020/09/02 13:43:26;;;;;;;2.80;1.91;;;;;;;20.78;65.66;100553.91;;;;-52
2020/09/02 13:46:26;;;;;;;3.39;2.08;;;;;;;20.78;65.68;100550.81;;;;-52
2020/09/02 13:49:26;;;;;;;2.47;2.08;;;;;;;20.77;65.73;100546.34;;;;-52
2020/09/02 13:52:26;;;;;;;2.49;2.02;;;;;;;20.77;65.66;100547.89;;;;-52
2020/09/02 13:55:26;;;;;;;3.03;2.10;;;;;;;20.78;65.71;100549.83;;;;-52
2020/09/02 13:58:26;;;;;;;2.47;2.07;;;;;;;20.77;65.69;100552.02;;;;-52
2020/09/02 14:01:26;;;;;;;2.45;2.00;;;;;;;20.78;65.68;100551.87;;;;-52
2020/09/02 14:04:26;;;;;;;2.64;2.07;;;;;;;20.78;65.68;100548.86;;;;-52
2020/09/02 14:07:26;;;;;;;2.61;2.07;;;;;;;20.78;65.64;100550.65;;;;-52
2020/09/02 14:10:26;;;;;;;3.43;2.10;;;;;;;20.78;65.61;100553.74;;;;-52
2020/09/02 14:13:26;;;;;;;2.81;1.91;;;;;;;20.78;65.63;100553.41;;;;-52
2020/09/02 14:16:26;;;;;;;3.71;2.00;;;;;;;20.78;65.72;100553.81;;;;-52
2020/09/02 14:19:26;;;;;;;2.17;1.97;;;;;;;20.78;65.68;100549.02;;;;-52
2020/09/02 14:22:26;;;;;;;3.22;2.12;;;;;;;20.79;65.71;100549.98;;;;-52
2020/09/02 14:25:26;;;;;;;2.91;2.12;;;;;;;20.79;65.67;100550.58;;;;-52
2020/09/02 14:28:26;;;;;;;2.23;2.00;;;;;;;20.78;65.66;100545.43;;;;-52
2020/09/02 14:31:26;;;;;;;2.45;2.00;;;;;;;20.79;65.68;100544.61;;;;-52
2020/09/02 14:34:26;;;;;;;2.16;1.76;;;;;;;20.79;65.65;100548.84;;;;-52
2020/09/02 14:37:26;;;;;;;1.95;1.80;;;;;;;20.79;65.64;100548.95;;;;-52
2020/09/02 14:40:26;;;;;;;3.71;1.91;;;;;;;20.80;65.65;100548.38;;;;-52
2020/09/02 14:43:26;;;;;;;2.11;1.91;;;;;;;20.79;65.70;100548.45;;;;-52
2020/09/02 14:46:26;;;;;;;1.95;1.83;;;;;;;20.79;65.67;100547.31;;;;-52
2020/09/02 14:49:26;;;;;;;2.15;1.95;;;;;;;20.79;65.64;100546.23;;;;-52
2020/09/02 14:52:26;;;;;;;2.26;1.90;;;;;;;20.79;65.71;100544.27;;;;-52
2020/09/02 14:55:26;;;;;;;1.96;1.79;;;;;;;20.82;65.68;100545.69;;;;-52
2020/09/02 14:58:26;;;;;;;2.13;1.93;;;;;;;20.83;65.69;100544.38;;;;-52
2020/09/02 15:01:26;;;;;;;4.73;2.23;;;;;;;20.82;65.64;100545.77;;;;-52
2020/09/02 15:04:26;;;;;;;3.17;2.11;;;;;;;20.82;65.66;100541.13;;;;-52
2020/09/02 15:07:26;;;;;;;2.81;2.31;;;;;;;20.83;65.63;100540.06;;;;-52
2020/09/02 15:10:26;;;;;;;6.23;2.42;;;;;;;20.82;65.62;100539.02;;;;-52
2020/09/02 15:13:26;;;;;;;6.73;2.40;;;;;;;20.82;65.66;100542.43;;;;-52
2020/09/02 15:16:26;;;;;;;3.47;2.36;;;;;;;20.81;65.62;100536.95;;;;-53
2020/09/02 15:19:26;;;;;;;3.18;2.31;;;;;;;20.82;65.69;100537.30;;;;-53
2020/09/02 15:22:26;;;;;;;2.47;2.27;;;;;;;20.82;65.62;100541.20;;;;-53
2020/09/02 15:25:26;;;;;;;2.59;2.35;;;;;;;20.84;65.64;100545.28;;;;-52
2020/09/02 15:28:26;;;;;;;3.43;2.17;;;;;;;20.83;65.60;100545.76;;;;-52
2020/09/02 15:31:26;;;;;;;2.79;2.16;;;;;;;20.84;65.60;100547.81;;;;-52
2020/09/02 15:34:26;;;;;;;2.96;2.36;;;;;;;20.83;65.64;100547.39;;;;-53
2020/09/02 15:37:26;;;;;;;2.22;2.00;;;;;;;20.83;65.64;100545.92;;;;-52
2020/09/02 15:40:26;;;;;;;3.10;2.16;;;;;;;20.83;65.70;100543.56;;;;-53
2020/09/02 15:43:26;;;;;;;2.38;2.18;;;;;;;20.83;65.67;100541.77;;;;-52
2020/09/02 15:46:26;;;;;;;2.37;2.09;;;;;;;20.84;65.64;100542.69;;;;-52
2020/09/02 15:49:26;;;;;;;4.53;2.22;;;;;;;20.84;65.62;100536.98;;;;-52
2020/09/02 15:52:26;;;;;;;2.83;2.17;;;;;;;20.84;65.63;100537.39;;;;-52
2020/09/02 15:55:26;;;;;;;2.83;2.18;;;;;;;20.83;65.61;100538.26;;;;-52
2020/09/02 15:58:26;;;;;;;2.74;2.23;;;;;;;20.84;65.63;100537.30;;;;-52
2020/09/02 16:01:26;;;;;;;2.86;2.35;;;;;;;20.85;65.64;100539.65;;;;-52
2020/09/02 16:04:26;;;;;;;2.29;2.09;;;;;;;20.85;65.64;100542.66;;;;-52
2020/09/02 16:07:26;;;;;;;2.55;2.09;;;;;;;20.84;65.69;100538.03;;;;-52
2020/09/02 16:10:26;;;;;;;3.01;2.14;;;;;;;20.85;65.60;100544.63;;;;-52
2020/09/02 16:13:26;;;;;;;2.70;2.20;;;;;;;20.85;65.66;100542.91;;;;-52
2020/09/02 16:16:26;;;;;;;2.43;2.20;;;;;;;20.86;65.64;100544.97;;;;-57
2020/09/02 16:19:26;;;;;;;2.85;2.15;;;;;;;20.85;65.68;100547.80;;;;-52
2020/09/02 16:22:26;;;;;;;2.40;2.20;;;;;;;20.85;65.70;100552.77;;;;-52
2020/09/02 16:25:26;;;;;;;2.34;2.14;;;;;;;20.85;65.68;100553.50;;;;-52
2020/09/02 16:28:26;;;;;;;2.65;2.31;;;;;;;20.86;65.66;100552.14;;;;-52
2020/09/02 16:31:26;;;;;;;2.63;2.10;;;;;;;20.86;65.66;100557.99;;;;-52
2020/09/02 16:34:26;;;;;;;2.65;2.11;;;;;;;20.87;65.71;100557.66;;;;-52
2020/09/02 16:37:26;;;;;;;2.49;2.10;;;;;;;20.87;65.66;100563.61;;;;-52
2020/09/02 16:40:26;;;;;;;2.92;2.19;;;;;;;20.87;65.64;100567.75;;;;-52
2020/09/02 16:43:26;;;;;;;2.33;2.09;;;;;;;20.86;65.63;100563.70;;;;-57
2020/09/02 16:46:26;;;;;;;2.50;2.23;;;;;;;20.87;65.66;100568.66;;;;-57